Time;durP1;ratioP1;P1;durP2;ratioP2;P2;SDS_P1;SDS_P2;PMS_P1;PMS_P2;Temp;Humidity;BMP_temperature;BMP_pressure;BME280_temperature;BME280_humidity;BME280_pressure;Samples;Min_cycle;Max_cycle;Signal;HPM_P1;HPM_P2
2022/06/19 20:46:57;;;;;;;8.18;3.70;;;;;;;23.96;50.75;148153.38;1802717;79;23164;-57
2022/06/19 20:49:32;;;;;;;6.95;3.40;;;;;;;23.78;51.11;148107.78;1762886;80;21545;-58
2022/06/19 20:52:01;;;;;;;9.48;3.45;;;;;;;23.64;51.61;148072.30;1731472;81;21019;-58
2022/06/19 20:54:31;;;;;;;6.83;4.27;;;;;;;23.48;51.90;148034.27;1729314;82;21530;-57
2022/06/19 20:56:59;;;;;;;7.78;3.22;;;;;;;23.38;52.37;148008.94;1729032;82;21027;-57
2022/06/19 20:59:26;;;;;;;5.35;3.37;;;;;;;23.28;52.56;147983.63;1729071;83;21031;-58
2022/06/19 21:01:56;;;;;;;24.43;15.25;;;;;;;23.18;53.01;147960.86;1729080;83;20999;-58
2022/06/19 21:04:24;;;;;;;9.78;5.65;;;;;;;23.10;53.41;147940.62;1715442;84;21087;-57
2022/06/19 21:06:50;;;;;;;9.73;3.70;;;;;;;23.03;53.68;147922.89;1715668;84;21080;-57
2022/06/19 21:09:19;;;;;;;9.60;5.00;;;;;;;22.97;53.93;147907.67;1714771;83;21092;-58
2022/06/19 21:11:48;;;;;;;14.20;5.20;;;;;;;22.91;54.07;147893.70;1743694;82;21561;-57
2022/06/19 21:14:16;;;;;;;9.45;4.37;;;;;;;22.87;54.20;147882.31;1743874;82;21071;-57
2022/06/19 21:16:44;;;;;;;12.23;6.60;;;;;;;22.83;54.26;147873.47;1740996;82;21028;-57
2022/06/19 21:19:11;;;;;;;9.28;4.30;;;;;;;22.80;54.39;147864.63;1743897;82;21036;-57
2022/06/19 21:21:43;;;;;;;6.70;2.90;;;;;;;22.78;54.47;147859.55;1724719;82;21080;-57
2022/06/19 21:24:15;;;;;;;;;;;;;;;22.74;54.47;147850.66;1723830;83;21059;-57
2022/06/19 21:26:44;;;;;;;6.72;3.05;;;;;;;22.71;54.56;147843.08;1721329;83;20105;-57
2022/06/19 21:29:15;;;;;;;6.03;3.92;;;;;;;22.67;54.71;147832.94;1693050;83;21048;-57
2022/06/19 21:31:42;;;;;;;10.30;3.08;;;;;;;22.64;54.80;147825.34;1737120;81;21071;-57
2022/06/19 21:34:14;;;;;;;7.70;3.42;;;;;;;22.59;54.88;147813.95;1743932;81;21028;-57
2022/06/19 21:36:41;;;;;;;8.68;3.52;;;;;;;22.57;54.96;147808.94;1743663;82;21028;-58
2022/06/19 21:39:13;;;;;;;8.55;3.90;;;;;;;22.53;55.05;147798.80;1743932;82;21083;-57
2022/06/19 21:41:50;;;;;;;9.45;3.80;;;;;;;22.48;55.19;147786.14;1741121;82;21529;-57
2022/06/19 21:44:19;;;;;;;6.03;2.60;;;;;;;22.44;55.28;147776.00;1743882;82;21549;-57
2022/06/19 21:46:49;;;;;;;8.00;3.70;;;;;;;22.39;55.29;147764.64;1731716;82;21510;-57
2022/06/19 21:49:16;;;;;;;6.97;3.10;;;;;;;22.36;55.36;147755.77;1785704;80;21019;-57
2022/06/19 21:51:48;;;;;;;7.72;3.60;;;;;;;22.33;55.42;147749.44;1774937;80;21021;-57
2022/06/19 21:54:17;;;;;;;8.35;3.77;;;;;;;22.29;55.51;147740.59;1713898;83;21046;-57
2022/06/19 21:56:45;;;;;;;8.43;2.90;;;;;;;22.27;55.45;147734.27;1749506;81;21435;-57
2022/06/19 21:59:21;;;;;;;8.38;2.98;;;;;;;22.23;55.53;147725.39;1713104;82;21000;-57
2022/06/19 22:01:54;;;;;;;6.95;3.12;;;;;;;22.20;55.63;147717.81;1751717;80;20964;-57
2022/06/19 22:04:18;;;;;;;7.40;3.27;;;;;;;22.16;55.68;147707.67;1712621;83;21055;-57
2022/06/19 22:06:47;;;;;;;6.58;3.02;;;;;;;22.14;55.70;147702.59;1749698;80;21071;-57
2022/06/19 22:09:26;;;;;;;8.45;3.45;;;;;;;22.10;55.68;147692.45;1713340;83;21479;-57
2022/06/19 22:12:19;;;;;;;10.20;2.90;;;;;;;22.09;55.77;147689.95;1769212;80;21019;-57
2022/06/19 22:14:44;;;;;;;6.08;3.05;;;;;;;22.06;55.96;147682.38;1784964;80;21058;-57
2022/06/19 22:17:11;;;;;;;6.17;3.05;;;;;;;22.02;55.93;147672.22;1785428;80;21019;-57
2022/06/19 22:19:39;;;;;;;6.42;3.12;;;;;;;21.97;56.01;147659.58;1784883;79;21035;-57
2022/06/19 22:22:21;;;;;;;9.98;3.25;;;;;;;21.95;56.22;147654.50;1773933;80;20993;-58
2022/06/19 22:24:53;;;;;;;8.88;3.10;;;;;;;21.91;56.17;147645.67;1712017;83;21055;-57
2022/06/19 22:27:27;;;;;;;8.68;3.37;;;;;;;21.88;56.36;147639.34;1743882;81;21021;-57
2022/06/19 22:29:54;;;;;;;11.78;3.75;;;;;;;21.84;56.35;147629.22;1713282;83;21517;-57
2022/06/19 22:32:24;;;;;;;10.03;3.60;;;;;;;21.81;56.45;147621.63;1748874;81;21029;-56
2022/06/19 22:34:51;;;;;;;5.40;2.60;;;;;;;21.79;56.47;147615.31;1713045;82;21108;-56
2022/06/19 22:37:22;;;;;;;6.45;3.05;;;;;;;21.78;56.53;147614.06;1749113;81;21349;-56
2022/06/19 22:39:53;;;;;;;7.78;2.60;;;;;;;21.77;56.62;147610.25;1712785;82;21103;-56
2022/06/19 22:42:22;;;;;;;5.40;2.95;;;;;;;21.74;56.66;147603.92;1743154;82;21035;-57
2022/06/19 22:44:51;;;;;;;7.95;3.10;;;;;;;21.72;56.70;147598.84;1742749;82;21037;-57
2022/06/19 22:47:31;;;;;;;9.50;3.27;;;;;;;21.70;56.89;147593.78;1742927;81;21063;-57
2022/06/19 22:50:01;;;;;;;4.78;2.60;;;;;;;21.67;57.03;147586.20;1742870;82;20993;-57
